Hauptseite
METAR-TAF:

METAR-TAF

Flughäfen :

Tinian, Marianen, Vereinigte Staaten

Breite: 14-59N, Länge: 145-37E, Höhe: 82 m

Beobachtung

Neuester Wetterbericht von vor 6 Stunden und 23 Minuten, um 08:52 UTC
Wind 7 kt aus Ost/Nordost
Temperatur 29°C
Luftfeuchtigkeit 70%
Luftdruck 1013 hPa
Sichtweite: 11.3 km
Leicht bewölkt in der Höhe von 2000 ft
Leicht bewölkt in der Höhe von 15000 ft

METAR: PGWT 250852Z 07007KT 7SM FEW020 FEW150 29/23 A2991 RMK LAST

Zeit: 01:15 (15:15 UTC)

Prognose

Neuester Wetterbericht von vor 9 Stunden und 44 Minuten, um 05:31 UTC
Gültige Prognose vom 25 um 06 UTC bis 26 um 06 UTC
Wind 14 kt aus Ost/Nordost
Sichtweite: 10 km
Aufgelockert bewölkt in der Höhe von 2000 ft

TAF: PGWT 250531Z 2506/2606 07014KT P6SM SCT020

Wetterbeobachtungen und Prognosen von mehr als 4000 Flughäfen (METAR und TAF Bericht).

Die verfügbaren Stationen werden durch gelbe und rote Markierungen auf der Karte dargestellt.

Führen Sie die Maus auf sie, um den Namen der Station zu sehen.

Darauf klicken, um die Beobachtung von Wetterbeobachtungen und Prognosen zu sehen.

Um die Karte zu ändern : klicken Sie auf den grünen Tasten mit einem schwarzen Kreuz Zum Vergrößern, auf den grünen Button mit einem Gedankenstrich zu verkleinern, oder auf die grünen Pfeile für benachbarte Karten.


METAR-TAF: